Delray Beach, FL (33444)

11:18 PM EDT on August 26, 2016 (GMT -0400)
Delray Beach | | Change Station

Elev 30 ft 26.47 °N, 80.09 °W | Updated 11 seconds ago

Overcast
Overcast
82.8 °F
Feels Like 92 °F
N
3.2
Wind Variable Wind from North
Gusts 3.7 mph

Today
High -- | Low -- °F
--% Chance of Precip.
Yesterday
High -- | Low -- °F
Precip. -- in
Pressure 29.97 in
Visibility 9.0 miles
Clouds
Heat Index 92 °F
Dew Point 78 °F
Humidity 84%
Rainfall 0.46 in
Snow Depth Not available.
6:57 AM 7:45 PM
Waning Crescent, 28% visible
SPECI KPMP 270304Z AUTO 13006KT 9SM -RA 27/24 A2997 RMK AO2 RAB0256 TSE0258 P0000 T02670239 $
Pressure 29.97 in
Visibility 9.0 miles
Clouds
Heat Index 92 °F
Dew Point 78 °F
Humidity 84%
Rainfall 0.46 in
Snow Depth Not available.
6:57 AM 7:45 PM
Waning Crescent, 28% visible
SPECI KPMP 270304Z AUTO 13006KT 9SM -RA 27/24 A2997 RMK AO2 RAB0256 TSE0258 P0000 T02670239 $

10-Day Weather Forecast

Almanac

Astronomy

Aug. 26, 2016 Rise Set
Actual Time
Civil Twilight
Nautical Twilight
Astronomical Twilight
Moon
Length of Visible Light
Length of Day
Tomorrow will be .
, % of the Moon is Illuminated

Today's Extremes

State Highs State Lows

Community

WunderPhotos

Upload Photos

1,935,284 photos uploaded!

WunderBlog® & News

Nearby

Air Quality

  Air Quality AQ Index Pollutant
Not available.

Snow Depth

Station Depth Elevation

Earthquake Activity

City Distance Mag. Time & Date
Minimum magnitude displayed is 2.5.

Coastal Water Temperatures

Place Temperature

Stations

Nearby Weather Stations

Station Location Temp. Windchill Dew Point Humidity Wind Precip. Elev Updated Type
                   

Watches & Warnings

There are currently no watches in effect.